sensor_id;sensor_type;location;lat;lon;timestamp;temperature;humidity
41469;DHT22;27206;47.032;15.484;2022-12-18T00:00:31;-1.00;1.00
41469;DHT22;27206;47.032;15.484;2022-12-18T00:02:57;-1.10;1.00
41469;DHT22;27206;47.032;15.484;2022-12-18T00:05:22;-1.10;1.00
41469;DHT22;27206;47.032;15.484;2022-12-18T00:07:48;-1.20;1.00
41469;DHT22;27206;47.032;15.484;2022-12-18T00:10:13;-1.30;1.00
41469;DHT22;27206;47.032;15.484;2022-12-18T00:12:39;-1.30;1.00
41469;DHT22;27206;47.032;15.484;2022-12-18T00:15:04;-1.20;1.00
41469;DHT22;27206;47.032;15.484;2022-12-18T00:17:30;-1.30;1.00
41469;DHT22;27206;47.032;15.484;2022-12-18T00:19:55;-1.30;1.00
41469;DHT22;27206;47.032;15.484;2022-12-18T00:22:21;-1.40;1.00
41469;DHT22;27206;47.032;15.484;2022-12-18T00:24:46;-1.00;1.00
41469;DHT22;27206;47.032;15.484;2022-12-18T00:27:12;-1.40;1.00
41469;DHT22;27206;47.032;15.484;2022-12-18T00:29:37;-1.60;1.00
41469;DHT22;27206;47.032;15.484;2022-12-18T00:32:04;-1.60;1.00
41469;DHT22;27206;47.032;15.484;2022-12-18T00:34:30;-1.60;1.00
41469;DHT22;27206;47.032;15.484;2022-12-18T00:36:55;-1.60;1.00
41469;DHT22;27206;47.032;15.484;2022-12-18T00:39:21;-1.70;1.00
41469;DHT22;27206;47.032;15.484;2022-12-18T00:41:46;-1.70;1.00
41469;DHT22;27206;47.032;15.484;2022-12-18T00:44:30;-1.80;1.00
41469;DHT22;27206;47.032;15.484;2022-12-18T00:46:56;-1.80;1.00
41469;DHT22;27206;47.032;15.484;2022-12-18T00:49:21;-1.80;1.00
41469;DHT22;27206;47.032;15.484;2022-12-18T00:51:47;-1.90;1.00
41469;DHT22;27206;47.032;15.484;2022-12-18T00:54:13;-1.90;1.00
41469;DHT22;27206;47.032;15.484;2022-12-18T00:56:38;-1.90;1.00
41469;DHT22;27206;47.032;15.484;2022-12-18T00:59:04;-2.00;1.00
41469;DHT22;27206;47.032;15.484;2022-12-18T01:01:29;-2.00;1.00
41469;DHT22;27206;47.032;15.484;2022-12-18T01:03:55;-2.00;1.00
41469;DHT22;27206;47.032;15.484;2022-12-18T01:06:22;-2.00;1.00
41469;DHT22;27206;47.032;15.484;2022-12-18T01:08:48;-2.00;1.00
41469;DHT22;27206;47.032;15.484;2022-12-18T01:11:14;-2.00;1.00
41469;DHT22;27206;47.032;15.484;2022-12-18T01:13:40;-2.00;1.00
41469;DHT22;27206;47.032;15.484;2022-12-18T01:16:06;-2.10;1.00
41469;DHT22;27206;47.032;15.484;2022-12-18T01:18:32;-2.20;1.00
41469;DHT22;27206;47.032;15.484;2022-12-18T01:20:58;-2.20;1.00
41469;DHT22;27206;47.032;15.484;2022-12-18T01:23:23;-2.30;1.00
41469;DHT22;27206;47.032;15.484;2022-12-18T01:25:49;-2.30;1.00
41469;DHT22;27206;47.032;15.484;2022-12-18T01:28:14;-2.40;1.00
41469;DHT22;27206;47.032;15.484;2022-12-18T01:30:40;-2.40;1.00
41469;DHT22;27206;47.032;15.484;2022-12-18T01:33:05;-2.40;1.00
41469;DHT22;27206;47.032;15.484;2022-12-18T01:35:31;-2.30;1.00
41469;DHT22;27206;47.032;15.484;2022-12-18T01:37:57;-2.40;1.00
41469;DHT22;27206;47.032;15.484;2022-12-18T01:40:22;-2.50;1.00
41469;DHT22;27206;47.032;15.484;2022-12-18T01:42:53;-2.50;1.00
41469;DHT22;27206;47.032;15.484;2022-12-18T01:45:24;-2.50;1.00
41469;DHT22;27206;47.032;15.484;2022-12-18T01:47:54;-2.50;1.00
41469;DHT22;27206;47.032;15.484;2022-12-18T01:52:50;-2.40;1.00
41469;DHT22;27206;47.032;15.484;2022-12-18T01:55:17;-2.50;1.00
41469;DHT22;27206;47.032;15.484;2022-12-18T01:57:43;-2.70;1.00
41469;DHT22;27206;47.032;15.484;2022-12-18T02:00:13;-2.60;1.00
41469;DHT22;27206;47.032;15.484;2022-12-18T02:02:42;-2.60;1.00
41469;DHT22;27206;47.032;15.484;2022-12-18T02:05:09;-2.60;1.00
41469;DHT22;27206;47.032;15.484;2022-12-18T02:10:15;-2.70;1.00
41469;DHT22;27206;47.032;15.484;2022-12-18T02:12:45;-2.70;1.00
41469;DHT22;27206;47.032;15.484;2022-12-18T02:15:15;-2.70;1.00
41469;DHT22;27206;47.032;15.484;2022-12-18T02:17:43;-2.70;1.00
41469;DHT22;27206;47.032;15.484;2022-12-18T02:22:57;-2.70;1.00
41469;DHT22;27206;47.032;15.484;2022-12-18T02:27:54;-2.80;1.00
41469;DHT22;27206;47.032;15.484;2022-12-18T02:30:22;-2.80;1.00
41469;DHT22;27206;47.032;15.484;2022-12-18T02:32:49;-2.90;1.00
41469;DHT22;27206;47.032;15.484;2022-12-18T02:35:26;-3.00;1.00
41469;DHT22;27206;47.032;15.484;2022-12-18T02:37:52;-3.10;1.00
41469;DHT22;27206;47.032;15.484;2022-12-18T02:40:18;-3.10;1.00
41469;DHT22;27206;47.032;15.484;2022-12-18T02:42:44;-3.00;1.00
41469;DHT22;27206;47.032;15.484;2022-12-18T02:45:10;-3.00;1.00
41469;DHT22;27206;47.032;15.484;2022-12-18T02:47:39;-3.00;1.00
41469;DHT22;27206;47.032;15.484;2022-12-18T02:55:27;-3.10;1.00
41469;DHT22;27206;47.032;15.484;2022-12-18T02:57:54;-3.20;1.00
41469;DHT22;27206;47.032;15.484;2022-12-18T03:00:24;-3.20;1.00
41469;DHT22;27206;47.032;15.484;2022-12-18T03:05:20;-3.30;1.00
41469;DHT22;27206;47.032;15.484;2022-12-18T03:10:15;-3.20;1.00
41469;DHT22;27206;47.032;15.484;2022-12-18T03:12:47;-3.40;1.00
41469;DHT22;27206;47.032;15.484;2022-12-18T03:15:20;-3.40;1.00
41469;DHT22;27206;47.032;15.484;2022-12-18T03:17:52;-3.50;1.00
41469;DHT22;27206;47.032;15.484;2022-12-18T03:20:21;-3.50;1.00
41469;DHT22;27206;47.032;15.484;2022-12-18T03:22:47;-3.50;1.00
41469;DHT22;27206;47.032;15.484;2022-12-18T03:25:14;-3.50;1.00
41469;DHT22;27206;47.032;15.484;2022-12-18T03:27:42;-3.50;1.00
41469;DHT22;27206;47.032;15.484;2022-12-18T03:30:09;-3.50;1.00
41469;DHT22;27206;47.032;15.484;2022-12-18T03:35:22;-3.40;1.00
41469;DHT22;27206;47.032;15.484;2022-12-18T03:37:49;-3.50;1.00
41469;DHT22;27206;47.032;15.484;2022-12-18T03:40:15;-3.60;1.00
41469;DHT22;27206;47.032;15.484;2022-12-18T03:43:00;-3.60;1.00
41469;DHT22;27206;47.032;15.484;2022-12-18T03:45:31;-3.60;1.00
41469;DHT22;27206;47.032;15.484;2022-12-18T03:50:46;-3.60;1.00
41469;DHT22;27206;47.032;15.484;2022-12-18T03:53:58;-3.50;1.00
41469;DHT22;27206;47.032;15.484;2022-12-18T03:55:59;-3.50;1.00
41469;DHT22;27206;47.032;15.484;2022-12-18T03:58:25;-3.50;1.00
41469;DHT22;27206;47.032;15.484;2022-12-18T04:00:52;-3.50;1.00
41469;DHT22;27206;47.032;15.484;2022-12-18T04:03:19;-3.40;1.00
41469;DHT22;27206;47.032;15.484;2022-12-18T04:05:45;-3.60;1.00
41469;DHT22;27206;47.032;15.484;2022-12-18T04:08:12;-3.60;1.00
41469;DHT22;27206;47.032;15.484;2022-12-18T04:10:37;-3.60;1.00
41469;DHT22;27206;47.032;15.484;2022-12-18T04:13:03;-3.60;1.00
41469;DHT22;27206;47.032;15.484;2022-12-18T04:15:29;-3.60;1.00
41469;DHT22;27206;47.032;15.484;2022-12-18T04:17:54;-3.60;1.00
41469;DHT22;27206;47.032;15.484;2022-12-18T04:20:20;-3.50;1.00
41469;DHT22;27206;47.032;15.484;2022-12-18T04:22:46;-3.50;1.00
41469;DHT22;27206;47.032;15.484;2022-12-18T04:25:12;-3.60;1.00
41469;DHT22;27206;47.032;15.484;2022-12-18T04:27:37;-3.50;1.00
41469;DHT22;27206;47.032;15.484;2022-12-18T04:30:03;-3.60;1.00
41469;DHT22;27206;47.032;15.484;2022-12-18T04:32:28;-3.50;1.00
41469;DHT22;27206;47.032;15.484;2022-12-18T04:34:54;-3.50;1.00
41469;DHT22;27206;47.032;15.484;2022-12-18T04:37:20;-3.50;1.00
41469;DHT22;27206;47.032;15.484;2022-12-18T04:39:45;-3.50;1.00
41469;DHT22;27206;47.032;15.484;2022-12-18T04:42:11;-3.50;1.00
41469;DHT22;27206;47.032;15.484;2022-12-18T04:44:36;-3.50;1.00
41469;DHT22;27206;47.032;15.484;2022-12-18T04:47:02;-3.40;1.00
41469;DHT22;27206;47.032;15.484;2022-12-18T04:49:27;-3.40;1.00
41469;DHT22;27206;47.032;15.484;2022-12-18T04:51:53;-3.40;1.00
41469;DHT22;27206;47.032;15.484;2022-12-18T04:54:18;-3.50;1.00
41469;DHT22;27206;47.032;15.484;2022-12-18T04:56:44;-3.60;1.00
41469;DHT22;27206;47.032;15.484;2022-12-18T04:59:09;-3.50;1.00
41469;DHT22;27206;47.032;15.484;2022-12-18T05:01:35;-3.50;1.00
41469;DHT22;27206;47.032;15.484;2022-12-18T05:04:01;-3.60;1.00
41469;DHT22;27206;47.032;15.484;2022-12-18T05:06:26;-3.50;1.00
41469;DHT22;27206;47.032;15.484;2022-12-18T05:08:52;-3.50;1.00
41469;DHT22;27206;47.032;15.484;2022-12-18T05:11:17;-3.60;1.00
41469;DHT22;27206;47.032;15.484;2022-12-18T05:13:43;-3.60;1.00
41469;DHT22;27206;47.032;15.484;2022-12-18T05:16:09;-3.60;1.00
41469;DHT22;27206;47.032;15.484;2022-12-18T05:18:35;-3.60;1.00
41469;DHT22;27206;47.032;15.484;2022-12-18T05:21:00;-3.60;1.00
41469;DHT22;27206;47.032;15.484;2022-12-18T05:23:26;-3.60;1.00
41469;DHT22;27206;47.032;15.484;2022-12-18T05:25:59;-3.80;1.00
41469;DHT22;27206;47.032;15.484;2022-12-18T05:28:25;-3.80;1.00
41469;DHT22;27206;47.032;15.484;2022-12-18T05:30:52;-3.80;1.00
41469;DHT22;27206;47.032;15.484;2022-12-18T05:33:18;-3.80;1.00
41469;DHT22;27206;47.032;15.484;2022-12-18T05:35:44;-3.80;1.00
41469;DHT22;27206;47.032;15.484;2022-12-18T05:38:10;-3.70;1.00
41469;DHT22;27206;47.032;15.484;2022-12-18T05:40:35;-3.80;1.00
41469;DHT22;27206;47.032;15.484;2022-12-18T05:43:02;-3.80;1.00
41469;DHT22;27206;47.032;15.484;2022-12-18T05:45:27;-3.80;1.00
41469;DHT22;27206;47.032;15.484;2022-12-18T05:47:53;-3.80;1.00
41469;DHT22;27206;47.032;15.484;2022-12-18T05:50:18;-3.80;1.00
41469;DHT22;27206;47.032;15.484;2022-12-18T05:52:43;-3.70;1.00
41469;DHT22;27206;47.032;15.484;2022-12-18T05:55:09;-3.50;1.00
41469;DHT22;27206;47.032;15.484;2022-12-18T05:57:34;-3.40;1.00
41469;DHT22;27206;47.032;15.484;2022-12-18T06:00:00;-3.40;1.00
41469;DHT22;27206;47.032;15.484;2022-12-18T06:02:26;-3.40;1.00
41469;DHT22;27206;47.032;15.484;2022-12-18T06:04:51;-3.30;1.00
41469;DHT22;27206;47.032;15.484;2022-12-18T06:07:17;-3.40;1.00
41469;DHT22;27206;47.032;15.484;2022-12-18T06:09:42;-3.30;1.00
41469;DHT22;27206;47.032;15.484;2022-12-18T06:12:08;-3.30;1.00
41469;DHT22;27206;47.032;15.484;2022-12-18T06:14:33;-3.30;1.00
41469;DHT22;27206;47.032;15.484;2022-12-18T06:16:59;-3.30;1.00
41469;DHT22;27206;47.032;15.484;2022-12-18T06:19:24;-3.50;1.00
41469;DHT22;27206;47.032;15.484;2022-12-18T06:21:50;-3.40;1.00
41469;DHT22;27206;47.032;15.484;2022-12-18T06:24:16;-3.40;1.00
41469;DHT22;27206;47.032;15.484;2022-12-18T06:26:42;-3.40;1.00
41469;DHT22;27206;47.032;15.484;2022-12-18T06:29:07;-3.40;1.00
41469;DHT22;27206;47.032;15.484;2022-12-18T06:31:33;-3.30;1.00
41469;DHT22;27206;47.032;15.484;2022-12-18T06:33:59;-3.40;1.00
41469;DHT22;27206;47.032;15.484;2022-12-18T06:36:24;-3.40;1.00
41469;DHT22;27206;47.032;15.484;2022-12-18T06:38:50;-3.30;1.00
41469;DHT22;27206;47.032;15.484;2022-12-18T06:41:17;-3.20;1.00
41469;DHT22;27206;47.032;15.484;2022-12-18T06:43:43;-3.20;1.00
41469;DHT22;27206;47.032;15.484;2022-12-18T06:46:08;-3.20;1.00
41469;DHT22;27206;47.032;15.484;2022-12-18T06:48:34;-3.20;1.00
41469;DHT22;27206;47.032;15.484;2022-12-18T06:51:00;-3.10;1.00
41469;DHT22;27206;47.032;15.484;2022-12-18T06:53:25;-3.00;1.00
41469;DHT22;27206;47.032;15.484;2022-12-18T06:55:51;-3.00;1.00
41469;DHT22;27206;47.032;15.484;2022-12-18T06:58:17;-2.90;1.00
41469;DHT22;27206;47.032;15.484;2022-12-18T07:00:42;-2.90;1.00
41469;DHT22;27206;47.032;15.484;2022-12-18T07:03:08;-3.00;1.00
41469;DHT22;27206;47.032;15.484;2022-12-18T07:05:33;-3.10;1.00
41469;DHT22;27206;47.032;15.484;2022-12-18T07:07:59;-3.10;1.00
41469;DHT22;27206;47.032;15.484;2022-12-18T07:10:24;-3.10;1.00
41469;DHT22;27206;47.032;15.484;2022-12-18T07:12:50;-2.90;1.00
41469;DHT22;27206;47.032;15.484;2022-12-18T07:15:15;-2.80;1.00
41469;DHT22;27206;47.032;15.484;2022-12-18T07:17:41;-2.80;1.00
41469;DHT22;27206;47.032;15.484;2022-12-18T07:20:06;-2.80;1.00
41469;DHT22;27206;47.032;15.484;2022-12-18T07:22:32;-2.70;1.00
41469;DHT22;27206;47.032;15.484;2022-12-18T07:24:57;-2.60;1.00
41469;DHT22;27206;47.032;15.484;2022-12-18T07:27:24;-2.60;1.00
41469;DHT22;27206;47.032;15.484;2022-12-18T07:29:49;-2.70;1.00
41469;DHT22;27206;47.032;15.484;2022-12-18T07:32:15;-2.60;1.00
41469;DHT22;27206;47.032;15.484;2022-12-18T07:34:40;-2.60;1.00
41469;DHT22;27206;47.032;15.484;2022-12-18T07:37:06;-2.50;1.00
41469;DHT22;27206;47.032;15.484;2022-12-18T07:39:31;-2.60;1.00
41469;DHT22;27206;47.032;15.484;2022-12-18T07:41:57;-2.60;1.00
41469;DHT22;27206;47.032;15.484;2022-12-18T07:44:41;-2.60;1.00
41469;DHT22;27206;47.032;15.484;2022-12-18T07:47:07;-2.50;1.00
41469;DHT22;27206;47.032;15.484;2022-12-18T07:49:32;-2.50;1.00
41469;DHT22;27206;47.032;15.484;2022-12-18T07:51:58;-2.50;1.00
41469;DHT22;27206;47.032;15.484;2022-12-18T07:54:23;-2.50;1.00
41469;DHT22;27206;47.032;15.484;2022-12-18T07:56:49;-2.40;1.00
41469;DHT22;27206;47.032;15.484;2022-12-18T07:59:15;-2.30;1.00
41469;DHT22;27206;47.032;15.484;2022-12-18T08:01:41;-2.30;1.00
41469;DHT22;27206;47.032;15.484;2022-12-18T08:04:06;-2.30;1.00
41469;DHT22;27206;47.032;15.484;2022-12-18T08:06:32;-2.20;1.00
41469;DHT22;27206;47.032;15.484;2022-12-18T08:08:57;-2.20;1.00
41469;DHT22;27206;47.032;15.484;2022-12-18T08:11:24;-2.20;1.00
41469;DHT22;27206;47.032;15.484;2022-12-18T08:13:49;-2.10;1.00
41469;DHT22;27206;47.032;15.484;2022-12-18T08:16:15;-2.00;1.00
41469;DHT22;27206;47.032;15.484;2022-12-18T08:18:41;-2.10;1.00
41469;DHT22;27206;47.032;15.484;2022-12-18T08:21:28;-2.10;1.00
41469;DHT22;27206;47.032;15.484;2022-12-18T08:23:53;-2.10;1.00
41469;DHT22;27206;47.032;15.484;2022-12-18T08:26:19;-2.10;1.00
41469;DHT22;27206;47.032;15.484;2022-12-18T08:28:45;-2.20;1.00
41469;DHT22;27206;47.032;15.484;2022-12-18T08:31:10;-2.10;1.00
41469;DHT22;27206;47.032;15.484;2022-12-18T08:33:36;-2.00;1.00
41469;DHT22;27206;47.032;15.484;2022-12-18T08:36:03;-2.00;1.00
41469;DHT22;27206;47.032;15.484;2022-12-18T08:38:28;-1.90;1.00
41469;DHT22;27206;47.032;15.484;2022-12-18T08:41:08;-1.80;1.00
41469;DHT22;27206;47.032;15.484;2022-12-18T08:43:33;-1.60;1.00
41469;DHT22;27206;47.032;15.484;2022-12-18T08:46:18;-1.50;1.00
41469;DHT22;27206;47.032;15.484;2022-12-18T08:48:44;-1.40;1.00
41469;DHT22;27206;47.032;15.484;2022-12-18T08:51:09;-1.40;1.00
41469;DHT22;27206;47.032;15.484;2022-12-18T08:53:35;-1.30;1.00
41469;DHT22;27206;47.032;15.484;2022-12-18T08:56:01;-1.50;1.00
41469;DHT22;27206;47.032;15.484;2022-12-18T08:58:27;-1.60;1.00
41469;DHT22;27206;47.032;15.484;2022-12-18T09:00:52;-1.40;1.00
41469;DHT22;27206;47.032;15.484;2022-12-18T09:03:18;-1.40;1.00
41469;DHT22;27206;47.032;15.484;2022-12-18T09:05:47;-1.40;1.00
41469;DHT22;27206;47.032;15.484;2022-12-18T09:08:12;-1.40;1.00
41469;DHT22;27206;47.032;15.484;2022-12-18T09:10:44;-1.40;1.00
41469;DHT22;27206;47.032;15.484;2022-12-18T09:13:11;-1.40;1.00
41469;DHT22;27206;47.032;15.484;2022-12-18T09:15:43;-1.40;1.00
41469;DHT22;27206;47.032;15.484;2022-12-18T09:18:10;-1.30;1.00
41469;DHT22;27206;47.032;15.484;2022-12-18T09:20:36;-1.30;1.00
41469;DHT22;27206;47.032;15.484;2022-12-18T09:23:02;-1.20;1.00
41469;DHT22;27206;47.032;15.484;2022-12-18T09:25:28;-1.10;99.90
41469;DHT22;27206;47.032;15.484;2022-12-18T09:28:02;-1.30;99.90
41469;DHT22;27206;47.032;15.484;2022-12-18T09:30:27;-1.30;99.90
41469;DHT22;27206;47.032;15.484;2022-12-18T09:32:53;-1.40;99.90
41469;DHT22;27206;47.032;15.484;2022-12-18T09:35:18;-1.40;99.90
41469;DHT22;27206;47.032;15.484;2022-12-18T09:37:44;-1.30;99.90
41469;DHT22;27206;47.032;15.484;2022-12-18T09:40:13;-1.10;99.90
41469;DHT22;27206;47.032;15.484;2022-12-18T09:42:39;-1.10;99.90
41469;DHT22;27206;47.032;15.484;2022-12-18T09:45:05;-1.10;99.90
41469;DHT22;27206;47.032;15.484;2022-12-18T09:47:32;-1.20;99.90
41469;DHT22;27206;47.032;15.484;2022-12-18T09:50:13;-1.20;99.90
41469;DHT22;27206;47.032;15.484;2022-12-18T09:52:43;-1.00;99.90
41469;DHT22;27206;47.032;15.484;2022-12-18T09:55:28;-1.20;1.00
41469;DHT22;27206;47.032;15.484;2022-12-18T09:58:00;-1.10;99.90
41469;DHT22;27206;47.032;15.484;2022-12-18T10:00:28;-1.00;99.90
41469;DHT22;27206;47.032;15.484;2022-12-18T10:02:57;-0.90;1.00
41469;DHT22;27206;47.032;15.484;2022-12-18T10:10:53;-0.80;1.00
41469;DHT22;27206;47.032;15.484;2022-12-18T10:16:07;-0.90;99.90
41469;DHT22;27206;47.032;15.484;2022-12-18T10:18:38;-0.90;1.00
41469;DHT22;27206;47.032;15.484;2022-12-18T10:21:07;-0.70;1.00
41469;DHT22;27206;47.032;15.484;2022-12-18T10:26:13;-0.70;1.00
41469;DHT22;27206;47.032;15.484;2022-12-18T10:28:39;-0.80;1.00
41469;DHT22;27206;47.032;15.484;2022-12-18T10:31:21;-0.80;1.00
41469;DHT22;27206;47.032;15.484;2022-12-18T10:33:47;-0.80;1.00
41469;DHT22;27206;47.032;15.484;2022-12-18T10:36:13;-0.80;1.00
41469;DHT22;27206;47.032;15.484;2022-12-18T10:38:38;-0.80;1.00
41469;DHT22;27206;47.032;15.484;2022-12-18T10:43:47;-0.80;1.00
41469;DHT22;27206;47.032;15.484;2022-12-18T10:46:14;-1.00;1.00
41469;DHT22;27206;47.032;15.484;2022-12-18T10:51:25;-1.20;1.00
41469;DHT22;27206;47.032;15.484;2022-12-18T10:54:14;-1.00;1.00
41469;DHT22;27206;47.032;15.484;2022-12-18T10:56:37;-0.90;1.00
41469;DHT22;27206;47.032;15.484;2022-12-18T10:59:04;-0.70;1.00
41469;DHT22;27206;47.032;15.484;2022-12-18T11:04:18;-0.70;1.00
41469;DHT22;27206;47.032;15.484;2022-12-18T11:07:03;-0.80;1.00
41469;DHT22;27206;47.032;15.484;2022-12-18T11:09:30;-0.80;1.00
41469;DHT22;27206;47.032;15.484;2022-12-18T11:11:58;-0.80;1.00
41469;DHT22;27206;47.032;15.484;2022-12-18T11:14:31;-0.90;1.00
41469;DHT22;27206;47.032;15.484;2022-12-18T11:16:58;-0.90;1.00
41469;DHT22;27206;47.032;15.484;2022-12-18T11:19:34;-0.80;1.00
41469;DHT22;27206;47.032;15.484;2022-12-18T11:22:00;-0.70;1.00
41469;DHT22;27206;47.032;15.484;2022-12-18T11:24:34;-0.80;1.00
41469;DHT22;27206;47.032;15.484;2022-12-18T11:27:06;-0.70;1.00
41469;DHT22;27206;47.032;15.484;2022-12-18T11:29:40;-0.90;1.00
41469;DHT22;27206;47.032;15.484;2022-12-18T11:32:19;-0.80;1.00
41469;DHT22;27206;47.032;15.484;2022-12-18T11:34:46;-0.80;1.00
41469;DHT22;27206;47.032;15.484;2022-12-18T11:37:13;-0.80;1.00
41469;DHT22;27206;47.032;15.484;2022-12-18T11:39:42;-0.90;1.00
41469;DHT22;27206;47.032;15.484;2022-12-18T11:42:18;-1.00;1.00
41469;DHT22;27206;47.032;15.484;2022-12-18T11:44:49;-1.00;1.00
41469;DHT22;27206;47.032;15.484;2022-12-18T11:49:50;-1.00;1.00
41469;DHT22;27206;47.032;15.484;2022-12-18T11:52:21;-1.00;1.00
41469;DHT22;27206;47.032;15.484;2022-12-18T11:54:50;-1.00;1.00
41469;DHT22;27206;47.032;15.484;2022-12-18T12:02:33;-0.70;1.00
41469;DHT22;27206;47.032;15.484;2022-12-18T12:12:59;-0.90;1.00
41469;DHT22;27206;47.032;15.484;2022-12-18T12:20:24;-1.20;1.00
41469;DHT22;27206;47.032;15.484;2022-12-18T12:25:30;-0.90;1.00
41469;DHT22;27206;47.032;15.484;2022-12-18T12:33:04;-0.90;1.00
41469;DHT22;27206;47.032;15.484;2022-12-18T12:38:21;-0.90;1.00
41469;DHT22;27206;47.032;15.484;2022-12-18T12:40:52;-1.00;1.00
41469;DHT22;27206;47.032;15.484;2022-12-18T12:43:29;-1.00;1.00
41469;DHT22;27206;47.032;15.484;2022-12-18T12:46:06;-1.20;1.00
41469;DHT22;27206;47.032;15.484;2022-12-18T12:51:20;-1.00;1.00
41469;DHT22;27206;47.032;15.484;2022-12-18T12:53:46;-1.10;1.00
41469;DHT22;27206;47.032;15.484;2022-12-18T12:56:14;-1.00;1.00
41469;DHT22;27206;47.032;15.484;2022-12-18T12:58:43;-1.10;1.00
41469;DHT22;27206;47.032;15.484;2022-12-18T13:08:57;-1.20;1.00
41469;DHT22;27206;47.032;15.484;2022-12-18T13:14:33;-1.10;1.00
41469;DHT22;27206;47.032;15.484;2022-12-18T13:19:52;-0.90;1.00
41469;DHT22;27206;47.032;15.484;2022-12-18T13:22:33;-1.10;1.00
41469;DHT22;27206;47.032;15.484;2022-12-18T13:24:59;-1.10;1.00
41469;DHT22;27206;47.032;15.484;2022-12-18T13:35:38;-0.90;1.00
41469;DHT22;27206;47.032;15.484;2022-12-18T13:45:45;-0.80;1.00
41469;DHT22;27206;47.032;15.484;2022-12-18T13:48:17;-0.80;1.00
41469;DHT22;27206;47.032;15.484;2022-12-18T13:50:46;-0.80;1.00
41469;DHT22;27206;47.032;15.484;2022-12-18T13:53:19;-0.80;1.00
41469;DHT22;27206;47.032;15.484;2022-12-18T13:55:46;-0.80;1.00
41469;DHT22;27206;47.032;15.484;2022-12-18T13:58:12;-0.80;1.00
41469;DHT22;27206;47.032;15.484;2022-12-18T14:00:41;-0.70;1.00
41469;DHT22;27206;47.032;15.484;2022-12-18T14:03:23;-0.70;1.00
41469;DHT22;27206;47.032;15.484;2022-12-18T14:06:01;-0.60;1.00
41469;DHT22;27206;47.032;15.484;2022-12-18T14:08:40;-0.80;1.00
41469;DHT22;27206;47.032;15.484;2022-12-18T14:11:06;-0.70;1.00
41469;DHT22;27206;47.032;15.484;2022-12-18T14:13:36;-0.80;1.00
41469;DHT22;27206;47.032;15.484;2022-12-18T14:16:03;-0.90;1.00
41469;DHT22;27206;47.032;15.484;2022-12-18T14:21:04;-0.80;1.00
41469;DHT22;27206;47.032;15.484;2022-12-18T14:23:33;-0.80;1.00
41469;DHT22;27206;47.032;15.484;2022-12-18T14:25:58;-0.80;1.00
41469;DHT22;27206;47.032;15.484;2022-12-18T14:28:24;-0.70;1.00
41469;DHT22;27206;47.032;15.484;2022-12-18T14:30:51;-0.90;1.00
41469;DHT22;27206;47.032;15.484;2022-12-18T14:33:21;-0.80;1.00
41469;DHT22;27206;47.032;15.484;2022-12-18T14:38:23;-0.70;1.00
41469;DHT22;27206;47.032;15.484;2022-12-18T14:40:53;-0.70;1.00
41469;DHT22;27206;47.032;15.484;2022-12-18T14:43:19;-0.70;1.00
41469;DHT22;27206;47.032;15.484;2022-12-18T14:45:45;-0.80;1.00
41469;DHT22;27206;47.032;15.484;2022-12-18T14:50:37;-1.00;1.00
41469;DHT22;27206;47.032;15.484;2022-12-18T14:53:03;-1.00;1.00
41469;DHT22;27206;47.032;15.484;2022-12-18T14:55:29;-1.00;1.00
41469;DHT22;27206;47.032;15.484;2022-12-18T14:57:55;-0.90;1.00
41469;DHT22;27206;47.032;15.484;2022-12-18T15:00:22;-0.90;1.00
41469;DHT22;27206;47.032;15.484;2022-12-18T15:02:50;-0.90;1.00
41469;DHT22;27206;47.032;15.484;2022-12-18T15:05:24;-0.90;1.00
41469;DHT22;27206;47.032;15.484;2022-12-18T15:07:51;-1.00;1.00
41469;DHT22;27206;47.032;15.484;2022-12-18T15:10:18;-1.00;1.00
41469;DHT22;27206;47.032;15.484;2022-12-18T15:12:45;-1.00;1.00
41469;DHT22;27206;47.032;15.484;2022-12-18T15:17:56;-0.90;1.00
41469;DHT22;27206;47.032;15.484;2022-12-18T15:20:22;-1.00;1.00
41469;DHT22;27206;47.032;15.484;2022-12-18T15:22:47;-0.90;1.00
41469;DHT22;27206;47.032;15.484;2022-12-18T15:25:46;-0.90;1.00
41469;DHT22;27206;47.032;15.484;2022-12-18T15:28:15;-0.80;1.00
41469;DHT22;27206;47.032;15.484;2022-12-18T15:30:57;-0.80;1.00
41469;DHT22;27206;47.032;15.484;2022-12-18T15:33:24;-0.90;1.00
41469;DHT22;27206;47.032;15.484;2022-12-18T15:36:00;-0.80;1.00
41469;DHT22;27206;47.032;15.484;2022-12-18T15:38:26;-0.60;1.00
41469;DHT22;27206;47.032;15.484;2022-12-18T15:40:52;-0.50;1.00
41469;DHT22;27206;47.032;15.484;2022-12-18T15:43:17;-0.50;1.00
41469;DHT22;27206;47.032;15.484;2022-12-18T15:46:21;-0.60;1.00
41469;DHT22;27206;47.032;15.484;2022-12-18T15:48:45;-0.70;1.00
41469;DHT22;27206;47.032;15.484;2022-12-18T15:51:13;-0.70;1.00
41469;DHT22;27206;47.032;15.484;2022-12-18T15:53:40;-0.90;1.00
41469;DHT22;27206;47.032;15.484;2022-12-18T15:56:09;-0.70;1.00
41469;DHT22;27206;47.032;15.484;2022-12-18T15:58:53;-0.70;1.00
41469;DHT22;27206;47.032;15.484;2022-12-18T16:01:19;-0.70;1.00
41469;DHT22;27206;47.032;15.484;2022-12-18T16:03:45;-0.80;1.00
41469;DHT22;27206;47.032;15.484;2022-12-18T16:06:10;-0.80;1.00
41469;DHT22;27206;47.032;15.484;2022-12-18T16:08:36;-0.80;1.00
41469;DHT22;27206;47.032;15.484;2022-12-18T16:11:01;-0.60;1.00
41469;DHT22;27206;47.032;15.484;2022-12-18T16:13:27;-0.60;1.00
41469;DHT22;27206;47.032;15.484;2022-12-18T16:15:53;-0.50;1.00
41469;DHT22;27206;47.032;15.484;2022-12-18T16:18:18;-0.50;1.00
41469;DHT22;27206;47.032;15.484;2022-12-18T16:20:45;-0.60;1.00
41469;DHT22;27206;47.032;15.484;2022-12-18T16:23:10;-0.70;1.00
41469;DHT22;27206;47.032;15.484;2022-12-18T16:25:36;-0.70;1.00
41469;DHT22;27206;47.032;15.484;2022-12-18T16:28:02;-0.70;1.00
41469;DHT22;27206;47.032;15.484;2022-12-18T16:30:29;-0.60;1.00
41469;DHT22;27206;47.032;15.484;2022-12-18T16:32:56;-0.70;1.00
41469;DHT22;27206;47.032;15.484;2022-12-18T16:35:21;-0.70;1.00
41469;DHT22;27206;47.032;15.484;2022-12-18T16:37:47;-0.70;1.00
41469;DHT22;27206;47.032;15.484;2022-12-18T16:40:13;-0.70;1.00
41469;DHT22;27206;47.032;15.484;2022-12-18T16:42:39;-0.80;1.00
41469;DHT22;27206;47.032;15.484;2022-12-18T16:45:06;-0.70;1.00
41469;DHT22;27206;47.032;15.484;2022-12-18T16:47:32;-0.60;1.00
41469;DHT22;27206;47.032;15.484;2022-12-18T16:49:59;-0.60;1.00
41469;DHT22;27206;47.032;15.484;2022-12-18T16:52:25;-0.70;1.00
41469;DHT22;27206;47.032;15.484;2022-12-18T16:54:51;-0.70;1.00
41469;DHT22;27206;47.032;15.484;2022-12-18T16:57:17;-0.70;1.00
41469;DHT22;27206;47.032;15.484;2022-12-18T16:59:43;-0.70;1.00
41469;DHT22;27206;47.032;15.484;2022-12-18T17:02:30;-0.80;1.00
41469;DHT22;27206;47.032;15.484;2022-12-18T17:04:56;-0.70;1.00
41469;DHT22;27206;47.032;15.484;2022-12-18T17:07:23;-0.60;1.00
41469;DHT22;27206;47.032;15.484;2022-12-18T17:09:48;-0.60;1.00
41469;DHT22;27206;47.032;15.484;2022-12-18T17:12:18;-0.80;1.00
41469;DHT22;27206;47.032;15.484;2022-12-18T17:14:44;-0.70;1.00
41469;DHT22;27206;47.032;15.484;2022-12-18T17:17:09;-0.70;1.00
41469;DHT22;27206;47.032;15.484;2022-12-18T17:19:35;-0.60;1.00
41469;DHT22;27206;47.032;15.484;2022-12-18T17:22:01;-0.70;1.00
41469;DHT22;27206;47.032;15.484;2022-12-18T17:24:26;-0.80;1.00
41469;DHT22;27206;47.032;15.484;2022-12-18T17:26:52;-0.70;1.00
41469;DHT22;27206;47.032;15.484;2022-12-18T17:29:18;-0.70;1.00
41469;DHT22;27206;47.032;15.484;2022-12-18T17:31:45;-0.70;1.00